Time;durP1;ratioP1;P1;durP2;ratioP2;P2;SDS_P1;SDS_P2;PMS_P1;PMS_P2;Temp;Humidity;BMP_temperature;BMP_pressure;BME280_temperature;BME280_humidity;BME280_pressure;Samples;Min_cycle;Max_cycle;Signal;HPM_P1;HPM_P2
2023/12/29 00:00:00;;;;;;;;;;;;;;;10.54;81.75;100746.25;5017276;28;19925;-69
2023/12/29 00:02:25;;;;;;;;;;;;;;;10.45;82.27;100737.50;5012178;28;20433;-67
2023/12/29 00:04:50;;;;;;;;;;;;;;;10.50;81.97;100729.00;5024917;28;20480;-66
2023/12/29 00:07:15;;;;;;;;;;;;;;;10.50;81.92;100736.97;5013133;28;19925;-66
2023/12/29 00:09:41;;;;;;;;;;;;;;;10.52;82.23;100729.66;5009239;28;19944;-66
2023/12/29 00:12:07;;;;;;;;;;;;;;;10.57;82.32;100726.50;5017067;28;19917;-68
2023/12/29 00:14:32;;;;;;;;;;;;;;;10.54;82.27;100762.19;5018488;28;20560;-67
2023/12/29 00:16:57;;;;;;;;;;;;;;;10.54;82.27;100732.97;5013704;28;19925;-68
2023/12/29 00:19:22;;;;;;;;;;;;;;;10.54;82.25;100722.34;5010579;28;20028;-67
2023/12/29 00:21:48;;;;;;;;;;;;;;;10.40;83.42;100736.34;5016789;28;20325;-66
2023/12/29 00:24:13;;;;;;;;;;;;;;;9.93;84.95;100739.78;5016334;28;20028;-66
2023/12/29 00:26:38;;;;;;;;;;;;;;;9.80;86.70;100712.94;5014894;28;20485;-68
2023/12/29 00:29:05;;;;;;;;;;;;;;;9.46;88.97;100726.38;5011351;28;20294;-67
2023/12/29 00:31:31;;;;;;;;;;;;;;;9.27;90.74;100762.84;5014691;28;19971;-66
2023/12/29 00:33:56;;;;;;;;;;;;;;;9.25;91.68;100730.38;5016343;28;19921;-66
2023/12/29 00:36:21;;;;;;;;;;;;;;;9.45;91.89;100722.91;5016542;28;19925;-66
2023/12/29 00:38:46;;;;;;;;;;;;;;;9.62;91.63;100711.31;5014320;28;19931;-67
2023/12/29 00:41:12;;;;;;;;;;;;;;;9.69;91.56;100705.31;5015730;28;20039;-66
2023/12/29 00:43:37;;;;;;;;;;;;;;;9.73;91.07;100696.88;5022374;28;19921;-66
2023/12/29 00:46:03;;;;;;;;;;;;;;;9.71;91.21;100709.47;5019421;28;20019;-67
2023/12/29 00:48:28;;;;;;;;;;;;;;;9.53;91.91;100707.00;5017347;28;20006;-66
2023/12/29 00:50:54;;;;;;;;;;;;;;;9.37;93.32;100712.31;5021962;28;20552;-66
2023/12/29 00:53:19;;;;;;;;;;;;;;;9.20;95.01;100700.03;5019864;28;19917;-66
2023/12/29 00:55:44;;;;;;;;;;;;;;;9.07;96.79;100705.00;5021582;28;19927;-66
2023/12/29 00:58:09;;;;;;;;;;;;;;;8.92;98.29;100697.69;5017930;28;19925;-66
2023/12/29 01:00:34;;;;;;;;;;;;;;;8.81;99.67;100700.66;5019078;28;19921;-67
2023/12/29 01:03:00;;;;;;;;;;;;;;;8.76;100.00;100694.22;5017306;28;20055;-66
2023/12/29 01:05:25;;;;;;;;;;;;;;;8.98;100.00;100702.38;5018975;28;19921;-67
2023/12/29 01:07:50;;;;;;;;;;;;;;;9.18;100.00;100694.91;5016233;28;20024;-65
2023/12/29 01:10:15;;;;;;;;;;;;;;;9.27;99.89;100715.13;5019263;28;19921;-66
2023/12/29 01:12:41;;;;;;;;;;;;;;;9.31;99.13;100694.44;5016506;28;19921;-66
2023/12/29 01:15:06;;;;;;;;;;;;;;;9.37;98.97;100701.72;5014282;28;19921;-65
2023/12/29 01:17:31;;;;;;;;;;;;;;;9.32;98.71;100688.97;5017944;28;19928;-65
2023/12/29 01:19:56;;;;;;;;;;;;;;;9.09;99.32;100681.84;5020229;28;19921;-65
2023/12/29 01:22:22;;;;;;;;;;;;;;;8.96;100.00;100685.81;5014152;28;21374;-66
2023/12/29 01:24:47;;;;;;;;;;;;;;;8.81;100.00;100691.91;5014413;28;19925;-66
2023/12/29 01:27:13;;;;;;;;;;;;;;;8.72;100.00;100680.47;5010477;28;19925;-66
2023/12/29 01:29:38;;;;;;;;;;;;;;;8.66;100.00;100703.09;5015151;28;20030;-66
2023/12/29 01:32:06;;;;;;;;;;;;;;;8.64;100.00;100683.91;5021786;28;19966;-68
2023/12/29 01:34:33;;;;;;;;;;;;;;;8.57;100.00;100693.47;5012461;28;19924;-67
2023/12/29 01:36:59;;;;;;;;;;;;;;;8.57;100.00;100690.00;5019685;28;19925;-67
2023/12/29 01:39:24;;;;;;;;;;;;;;;8.55;100.00;100692.00;5014073;28;19921;-66
2023/12/29 01:41:49;;;;;;;;;;;;;;;8.49;100.00;100685.53;5015551;28;20018;-66
2023/12/29 01:44:14;;;;;;;;;;;;;;;8.53;100.00;100700.09;5016912;28;19962;-66
2023/12/29 01:46:40;;;;;;;;;;;;;;;8.61;100.00;100689.53;5011112;28;19925;-67
2023/12/29 01:49:05;;;;;;;;;;;;;;;8.67;100.00;100688.03;5018535;28;19928;-67
2023/12/29 01:51:30;;;;;;;;;;;;;;;8.73;100.00;100689.25;5013620;28;19921;-67
2023/12/29 01:53:57;;;;;;;;;;;;;;;8.76;100.00;100691.56;5019403;28;19917;-66
2023/12/29 01:56:22;;;;;;;;;;;;;;;8.79;100.00;100689.41;5015993;28;19921;-66
2023/12/29 01:58:49;;;;;;;;;;;;;;;8.81;100.00;100679.47;5016156;28;19928;-66
2023/12/29 02:01:14;;;;;;;;;;;;;;;8.86;100.00;100686.94;5014462;28;19921;-66
2023/12/29 02:03:40;;;;;;;;;;;;;;;8.82;100.00;100683.78;5015102;28;19921;-66
2023/12/29 02:06:06;;;;;;;;;;;;;;;8.86;100.00;100674.53;5011149;28;19979;-67
2023/12/29 02:08:31;;;;;;;;;;;;;;;8.88;100.00;100688.41;5014779;28;20008;-66
2023/12/29 02:10:57;;;;;;;;;;;;;;;8.92;100.00;100687.09;5018663;28;19932;-66
2023/12/29 02:13:22;;;;;;;;;;;;;;;8.98;100.00;100690.94;5018297;28;19921;-66
2023/12/29 02:15:50;;;;;;;;;;;;;;;9.03;100.00;100693.91;5010971;28;19925;-66
2023/12/29 02:18:16;;;;;;;;;;;;;;;9.05;100.00;100688.47;5017530;28;19921;-66
2023/12/29 02:20:42;;;;;;;;;;;;;;;9.05;100.00;100696.41;5013479;28;19929;-66
2023/12/29 02:23:07;;;;;;;;;;;;;;;9.04;100.00;100694.75;5014989;28;19924;-66
2023/12/29 02:25:32;;;;;;;;;;;;;;;9.10;100.00;100699.38;5013643;28;19980;-65
2023/12/29 02:28:02;;;;;;;;;;;;;;;9.14;100.00;100695.41;5011945;28;20437;-69
2023/12/29 02:30:30;;;;;;;;;;;;;;;9.20;100.00;100684.97;5012269;28;19926;-66
2023/12/29 02:33:01;;;;;;;;;;;;;;;9.26;100.00;100694.09;5014140;28;19998;-69
2023/12/29 02:35:32;;;;;;;;;;;;;;;9.24;100.00;100691.59;5020012;28;19982;-66
2023/12/29 02:37:58;;;;;;;;;;;;;;;9.24;100.00;100690.75;5018331;28;19951;-67
2023/12/29 02:40:24;;;;;;;;;;;;;;;9.27;100.00;100682.50;5022997;28;19920;-66
2023/12/29 02:42:49;;;;;;;;;;;;;;;9.31;100.00;100686.47;5018046;28;19953;-67
2023/12/29 02:45:15;;;;;;;;;;;;;;;9.37;100.00;100680.50;5014927;28;19921;-66
2023/12/29 02:47:41;;;;;;;;;;;;;;;9.40;100.00;100698.72;5018771;28;19930;-66
2023/12/29 02:50:06;;;;;;;;;;;;;;;9.48;100.00;100692.59;5021883;28;19995;-68
2023/12/29 02:52:31;;;;;;;;;;;;;;;9.51;100.00;100708.16;5021304;28;20441;-66
2023/12/29 02:54:57;;;;;;;;;;;;;;;9.55;100.00;100702.38;5020237;28;19917;-66
2023/12/29 02:57:22;;;;;;;;;;;;;;;9.58;99.38;100704.69;5022336;28;19932;-66
2023/12/29 02:59:47;;;;;;;;;;;;;;;9.60;99.36;100700.03;5017976;28;20819;-68
2023/12/29 03:02:12;;;;;;;;;;;;;;;9.62;98.67;100684.78;5022772;28;19917;-66
2023/12/29 03:04:37;;;;;;;;;;;;;;;9.63;97.88;100697.06;5021665;28;19927;-66
2023/12/29 03:07:03;;;;;;;;;;;;;;;9.68;97.73;100698.38;5021795;28;19925;-66
2023/12/29 03:09:28;;;;;;;;;;;;;;;9.75;96.59;100670.19;5021756;28;19929;-67
2023/12/29 03:11:53;;;;;;;;;;;;;;;9.78;96.28;100675.13;5021796;28;20899;-66
2023/12/29 03:14:18;;;;;;;;;;;;;;;9.80;95.71;100665.19;5013144;28;19921;-67
2023/12/29 03:16:43;;;;;;;;;;;;;;;9.76;95.72;100671.84;5012587;28;19922;-67
2023/12/29 03:19:09;;;;;;;;;;;;;;;9.75;95.37;100680.78;5019421;28;19928;-66
2023/12/29 03:21:34;;;;;;;;;;;;;;;9.76;94.71;100679.78;5016027;28;19929;-67
2023/12/29 03:23:59;;;;;;;;;;;;;;;9.78;94.65;100668.00;5018751;28;20061;-66
2023/12/29 03:26:24;;;;;;;;;;;;;;;9.78;94.64;100659.22;5016426;28;20331;-66
2023/12/29 03:28:50;;;;;;;;;;;;;;;9.76;94.17;100677.13;5014512;28;19975;-67
2023/12/29 03:31:15;;;;;;;;;;;;;;;9.76;93.68;100679.78;5023379;28;19917;-67
2023/12/29 03:33:40;;;;;;;;;;;;;;;9.77;93.18;100674.31;5017622;28;19937;-66
2023/12/29 03:36:07;;;;;;;;;;;;;;;9.78;93.10;100675.13;5016195;28;19968;-66
2023/12/29 03:38:33;;;;;;;;;;;;;;;9.75;93.03;100678.97;5019239;28;20421;-66
2023/12/29 03:40:58;;;;;;;;;;;;;;;9.76;92.80;100690.41;5019814;28;19917;-66
2023/12/29 03:43:23;;;;;;;;;;;;;;;9.77;92.83;100676.97;5011120;28;20275;-66
2023/12/29 03:45:49;;;;;;;;;;;;;;;9.78;92.69;100678.63;5012963;28;19924;-67
2023/12/29 03:48:14;;;;;;;;;;;;;;;9.84;92.28;100667.34;5013268;28;19920;-66
2023/12/29 03:50:39;;;;;;;;;;;;;;;9.88;92.09;100673.16;5018687;28;19917;-66
2023/12/29 03:53:04;;;;;;;;;;;;;;;9.87;91.53;100650.28;5012933;28;19928;-67
2023/12/29 03:55:29;;;;;;;;;;;;;;;9.93;91.27;100665.50;5015956;28;19917;-67
2023/12/29 03:57:54;;;;;;;;;;;;;;;9.94;91.22;100662.69;5011002;28;21087;-66
2023/12/29 04:00:20;;;;;;;;;;;;;;;9.94;90.59;100665.31;5010531;28;20565;-71
2023/12/29 04:02:45;;;;;;;;;;;;;;;9.99;90.54;100651.53;5016614;28;20007;-66
2023/12/29 04:05:10;;;;;;;;;;;;;;;10.01;89.52;100662.81;5016886;28;19925;-67
2023/12/29 04:07:36;;;;;;;;;;;;;;;10.03;89.80;100663.47;5015536;28;19931;-67
2023/12/29 04:10:01;;;;;;;;;;;;;;;10.00;89.35;100662.97;5013285;28;19927;-67
2023/12/29 04:12:26;;;;;;;;;;;;;;;10.01;89.14;100652.19;5016023;28;20007;-67
2023/12/29 04:14:51;;;;;;;;;;;;;;;9.97;89.35;100650.88;5015789;28;19913;-66
2023/12/29 04:17:17;;;;;;;;;;;;;;;9.94;89.38;100664.50;5018889;28;19928;-68
2023/12/29 04:19:42;;;;;;;;;;;;;;;9.97;88.99;100679.25;5008507;28;19921;-67
2023/12/29 04:22:07;;;;;;;;;;;;;;;10.05;88.49;100660.63;5015117;28;19917;-68
2023/12/29 04:24:33;;;;;;;;;;;;;;;10.02;88.72;100659.16;5012882;28;19928;-67
2023/12/29 04:26:58;;;;;;;;;;;;;;;10.00;88.63;100663.81;5008798;28;20082;-66
2023/12/29 04:29:23;;;;;;;;;;;;;;;9.96;88.68;100664.31;5020704;28;20444;-66
2023/12/29 04:31:48;;;;;;;;;;;;;;;9.93;89.13;100654.88;5013660;28;20381;-67
2023/12/29 04:34:14;;;;;;;;;;;;;;;9.95;88.83;100652.88;5013108;28;19966;-67
2023/12/29 04:36:39;;;;;;;;;;;;;;;9.98;88.52;100667.63;5015259;28;19921;-66
2023/12/29 04:39:04;;;;;;;;;;;;;;;10.00;88.38;100689.50;5007451;28;19996;-66
2023/12/29 04:41:29;;;;;;;;;;;;;;;10.00;88.27;100681.56;5013404;28;20447;-67
2023/12/29 04:43:55;;;;;;;;;;;;;;;10.02;88.03;100666.28;5010784;28;19917;-66
2023/12/29 04:46:20;;;;;;;;;;;;;;;10.00;88.25;100676.25;5018865;28;19928;-66
2023/12/29 04:48:45;;;;;;;;;;;;;;;9.97;88.31;100665.97;5011223;28;19993;-67
2023/12/29 04:51:10;;;;;;;;;;;;;;;9.96;87.98;100709.44;5012489;28;20362;-66
2023/12/29 04:53:36;;;;;;;;;;;;;;;9.97;87.83;100658.84;5009091;28;20398;-66
2023/12/29 04:56:01;;;;;;;;;;;;;;;9.92;87.88;100677.94;5019318;28;19921;-66
2023/12/29 04:58:26;;;;;;;;;;;;;;;10.04;87.61;100683.69;5019032;28;19928;-66
2023/12/29 05:00:51;;;;;;;;;;;;;;;9.91;87.43;100681.59;5015738;28;19925;-68
2023/12/29 05:03:17;;;;;;;;;;;;;;;9.93;87.42;100679.59;5015428;28;20314;-66
2023/12/29 05:05:42;;;;;;;;;;;;;;;9.94;87.10;100667.97;5022194;28;19924;-67
2023/12/29 05:08:07;;;;;;;;;;;;;;;9.84;87.45;100677.13;5014123;28;19928;-69
2023/12/29 05:10:34;;;;;;;;;;;;;;;9.85;86.97;100690.22;5014142;28;19921;-67
2023/12/29 05:12:59;;;;;;;;;;;;;;;9.92;87.27;100691.19;5018202;28;19931;-68
2023/12/29 05:15:25;;;;;;;;;;;;;;;9.89;87.32;100670.31;5021671;28;20306;-67
2023/12/29 05:17:50;;;;;;;;;;;;;;;9.87;87.50;100676.78;5022963;28;19928;-68
2023/12/29 05:20:15;;;;;;;;;;;;;;;9.84;87.63;100687.75;5012478;28;19926;-67
2023/12/29 05:22:40;;;;;;;;;;;;;;;9.79;87.85;100667.00;5015685;28;19925;-66
2023/12/29 05:25:06;;;;;;;;;;;;;;;9.82;87.79;100679.09;5015491;28;19924;-66
2023/12/29 05:27:31;;;;;;;;;;;;;;;9.77;87.99;100673.47;5012108;28;20593;-68
2023/12/29 05:29:56;;;;;;;;;;;;;;;9.78;88.16;100685.75;5015085;28;19917;-67
2023/12/29 05:32:22;;;;;;;;;;;;;;;9.76;88.52;100672.66;5018753;28;19926;-67
2023/12/29 05:34:47;;;;;;;;;;;;;;;9.78;88.55;100664.53;5013306;28;19922;-66
2023/12/29 05:37:12;;;;;;;;;;;;;;;9.74;88.89;100676.47;5017564;28;19927;-68
2023/12/29 05:39:37;;;;;;;;;;;;;;;9.74;88.78;100682.59;5016705;28;19928;-66
2023/12/29 05:42:03;;;;;;;;;;;;;;;9.74;89.09;100660.56;5020552;28;19928;-66
2023/12/29 05:44:28;;;;;;;;;;;;;;;9.76;89.35;100669.19;5015251;28;19927;-67
2023/12/29 05:46:54;;;;;;;;;;;;;;;9.75;89.66;100671.00;5010517;28;19995;-67
2023/12/29 05:49:23;;;;;;;;;;;;;;;9.70;89.48;100694.56;5018213;28;19917;-66
2023/12/29 05:51:49;;;;;;;;;;;;;;;9.66;90.01;100668.56;5017142;28;20640;-67
2023/12/29 05:54:14;;;;;;;;;;;;;;;9.62;90.32;100662.75;5016658;28;19921;-67
2023/12/29 05:56:39;;;;;;;;;;;;;;;9.59;90.69;100668.41;5011287;28;19922;-67
2023/12/29 05:59:04;;;;;;;;;;;;;;;9.65;90.93;100673.03;5016497;28;20589;-67
2023/12/29 06:01:29;;;;;;;;;;;;;;;9.63;90.71;100670.53;5010825;28;20334;-67
2023/12/29 06:03:55;;;;;;;;;;;;;;;9.62;91.20;100668.06;5017940;28;19921;-70
2023/12/29 06:06:20;;;;;;;;;;;;;;;9.58;91.45;100667.56;5013468;28;19936;-66
2023/12/29 06:08:45;;;;;;;;;;;;;;;9.60;91.38;100662.09;5018922;28;19952;-66
2023/12/29 06:11:14;;;;;;;;;;;;;;;9.54;92.00;100663.59;5018865;28;19925;-70
2023/12/29 06:13:39;;;;;;;;;;;;;;;9.56;92.16;100682.81;5022657;28;19913;-66
2023/12/29 06:16:05;;;;;;;;;;;;;;;9.53;92.09;100672.53;5018916;28;19948;-67
2023/12/29 06:18:30;;;;;;;;;;;;;;;9.55;92.75;100677.69;5020987;28;19921;-66
2023/12/29 06:20:55;;;;;;;;;;;;;;;9.44;93.43;100665.59;5018384;28;19921;-67
2023/12/29 06:23:20;;;;;;;;;;;;;;;9.17;94.87;100676.53;5022159;28;20622;-69
2023/12/29 06:25:46;;;;;;;;;;;;;;;8.96;97.01;100672.56;5014466;28;20417;-68
2023/12/29 06:28:11;;;;;;;;;;;;;;;8.85;98.77;100672.03;5018983;28;19929;-67
2023/12/29 06:30:36;;;;;;;;;;;;;;;8.75;99.70;100663.44;5020381;28;19956;-66
2023/12/29 06:33:01;;;;;;;;;;;;;;;8.74;100.00;100667.06;5019112;28;20349;-67
2023/12/29 06:35:27;;;;;;;;;;;;;;;8.73;100.00;100676.81;5018650;28;19917;-67
2023/12/29 06:37:52;;;;;;;;;;;;;;;8.79;100.00;100659.47;5016956;28;20009;-66
2023/12/29 06:40:17;;;;;;;;;;;;;;;8.87;100.00;100662.94;5021237;28;19928;-66
2023/12/29 06:42:42;;;;;;;;;;;;;;;8.94;100.00;100665.75;5016456;28;21245;-66
2023/12/29 06:45:08;;;;;;;;;;;;;;;8.99;100.00;100663.47;5015539;28;20004;-67
2023/12/29 06:47:33;;;;;;;;;;;;;;;9.09;100.00;100664.13;5019536;28;20056;-66
2023/12/29 06:49:58;;;;;;;;;;;;;;;9.12;100.00;100668.25;5016796;28;20027;-66
2023/12/29 06:52:24;;;;;;;;;;;;;;;9.18;100.00;100671.06;5019399;28;19921;-67
2023/12/29 06:54:49;;;;;;;;;;;;;;;9.20;100.00;100663.78;5018221;28;19932;-66
2023/12/29 06:57:15;;;;;;;;;;;;;;;9.18;100.00;100659.63;5019604;28;19921;-67
2023/12/29 06:59:40;;;;;;;;;;;;;;;9.08;100.00;100657.16;5020557;28;19921;-67
2023/12/29 07:02:06;;;;;;;;;;;;;;;9.06;100.00;100640.63;5021828;28;19972;-68
2023/12/29 07:04:31;;;;;;;;;;;;;;;9.13;100.00;100657.50;5018105;28;20283;-66
2023/12/29 07:06:57;;;;;;;;;;;;;;;9.25;100.00;100650.88;5012276;28;19976;-67
2023/12/29 07:09:22;;;;;;;;;;;;;;;9.23;100.00;100652.84;5020657;28;19964;-67
2023/12/29 07:11:48;;;;;;;;;;;;;;;9.23;100.00;100636.94;5020485;28;19917;-66
2023/12/29 07:14:13;;;;;;;;;;;;;;;9.30;100.00;100629.19;5020754;28;19925;-67
2023/12/29 07:16:39;;;;;;;;;;;;;;;9.41;100.00;100625.34;5025004;28;19925;-67
2023/12/29 07:19:04;;;;;;;;;;;;;;;9.37;100.00;100638.09;5019884;28;19925;-70
2023/12/29 07:21:29;;;;;;;;;;;;;;;9.45;100.00;100624.00;5018564;28;19928;-67
2023/12/29 07:23:54;;;;;;;;;;;;;;;9.47;99.74;100649.34;5019491;28;20775;-67
2023/12/29 07:26:20;;;;;;;;;;;;;;;9.47;99.68;100649.34;5021218;28;20029;-67
2023/12/29 07:28:45;;;;;;;;;;;;;;;9.43;99.83;100649.84;5019069;28;19971;-66
2023/12/29 07:31:11;;;;;;;;;;;;;;;9.44;99.77;100647.03;5020958;28;19921;-68
2023/12/29 07:33:36;;;;;;;;;;;;;;;9.45;100.00;100635.44;5014207;28;19917;-67
2023/12/29 07:36:01;;;;;;;;;;;;;;;9.43;100.00;100650.69;5017307;28;19928;-67
2023/12/29 07:38:26;;;;;;;;;;;;;;;9.43;100.00;100644.56;5017734;28;19921;-68
2023/12/29 07:40:51;;;;;;;;;;;;;;;9.42;100.00;100653.50;5021460;28;19925;-68
2023/12/29 07:43:17;;;;;;;;;;;;;;;9.43;100.00;100655.97;5016343;28;19971;-67
2023/12/29 07:45:43;;;;;;;;;;;;;;;9.45;100.00;100661.94;5017887;28;19925;-67
2023/12/29 07:48:08;;;;;;;;;;;;;;;9.42;100.00;100656.16;5018228;28;20570;-67
2023/12/29 07:50:34;;;;;;;;;;;;;;;9.41;100.00;100655.31;5013967;28;19998;-67
2023/12/29 07:53:02;;;;;;;;;;;;;;;9.40;100.00;100655.50;5023579;28;19921;-66
2023/12/29 07:55:27;;;;;;;;;;;;;;;9.48;100.00;100656.31;5016259;28;20429;-67
2023/12/29 07:57:53;;;;;;;;;;;;;;;9.54;100.00;100652.16;5020649;28;19975;-68
2023/12/29 08:00:18;;;;;;;;;;;;;;;9.54;100.00;100652.16;5010826;28;20511;-67
2023/12/29 08:02:44;;;;;;;;;;;;;;;9.55;100.00;100654.66;5009466;28;19967;-67
2023/12/29 08:05:10;;;;;;;;;;;;;;;9.57;100.00;100655.31;5015420;28;20498;-66
2023/12/29 08:07:37;;;;;;;;;;;;;;;9.55;100.00;100638.75;5011824;28;19925;-67
2023/12/29 08:10:04;;;;;;;;;;;;;;;9.58;99.92;100645.53;5016606;28;20457;-67
2023/12/29 08:12:29;;;;;;;;;;;;;;;9.62;100.00;100638.91;5007275;28;19953;-67
2023/12/29 08:14:55;;;;;;;;;;;;;;;9.60;99.76;100620.50;5010034;28;20044;-66
2023/12/29 08:17:20;;;;;;;;;;;;;;;9.63;99.92;100633.41;5015383;28;19932;-67
2023/12/29 08:19:45;;;;;;;;;;;;;;;9.64;99.90;100650.16;5011951;28;20770;-68
2023/12/29 08:22:12;;;;;;;;;;;;;;;9.65;99.77;100640.38;5013878;28;20824;-67
2023/12/29 08:24:39;;;;;;;;;;;;;;;9.67;99.61;100638.38;5010516;28;19929;-68
2023/12/29 08:27:05;;;;;;;;;;;;;;;9.70;99.29;100648.66;5010183;28;20936;-67
2023/12/29 08:29:30;;;;;;;;;;;;;;;9.65;99.29;100669.53;5008538;28;19932;-66
2023/12/29 08:31:55;;;;;;;;;;;;;;;9.63;99.26;100656.47;5011308;28;19928;-69
2023/12/29 08:34:20;;;;;;;;;;;;;;;9.67;99.17;100649.81;5014507;28;20782;-68
2023/12/29 08:36:46;;;;;;;;;;;;;;;9.69;99.08;100647.00;5015541;28;19921;-69
2023/12/29 08:39:11;;;;;;;;;;;;;;;9.65;99.11;100643.84;5021163;28;20062;-67
2023/12/29 08:41:37;;;;;;;;;;;;;;;9.67;98.72;100678.97;5012590;28;20044;-68
2023/12/29 08:44:03;;;;;;;;;;;;;;;9.69;98.63;100653.13;5015680;28;19960;-69
2023/12/29 08:46:29;;;;;;;;;;;;;;;9.69;98.73;100665.56;5016991;28;19921;-67
2023/12/29 08:48:54;;;;;;;;;;;;;;;9.68;98.53;100658.59;5016751;28;20446;-68
2023/12/29 08:51:20;;;;;;;;;;;;;;;9.72;98.24;100662.56;5011360;28;19920;-69
2023/12/29 08:53:45;;;;;;;;;;;;;;;9.66;98.21;100652.63;5015321;28;19933;-67
2023/12/29 08:56:10;;;;;;;;;;;;;;;9.75;98.16;100673.66;5017979;28;19974;-69
2023/12/29 08:58:35;;;;;;;;;;;;;;;9.72;97.97;100657.25;5014166;28;19928;-67
2023/12/29 09:01:00;;;;;;;;;;;;;;;9.70;97.85;100665.38;5009009;28;19928;-67
2023/12/29 09:03:26;;;;;;;;;;;;;;;9.67;98.20;100684.28;5015234;28;19920;-67
2023/12/29 09:05:51;;;;;;;;;;;;;;;9.72;97.77;100678.47;5018572;28;20692;-68
2023/12/29 09:08:16;;;;;;;;;;;;;;;9.71;97.75;100671.50;5014276;28;19932;-69
2023/12/29 09:10:41;;;;;;;;;;;;;;;9.71;97.80;100668.88;5012480;28;20871;-68
2023/12/29 09:13:07;;;;;;;;;;;;;;;9.73;97.85;100670.34;5019367;28;19921;-67
2023/12/29 09:15:32;;;;;;;;;;;;;;;9.65;97.92;100683.63;5018791;28;19964;-72
2023/12/29 09:17:57;;;;;;;;;;;;;;;9.74;97.94;100690.56;5019656;28;20363;-67
2023/12/29 09:20:23;;;;;;;;;;;;;;;9.77;98.08;100684.09;5014674;28;20008;-69
2023/12/29 09:22:48;;;;;;;;;;;;;;;9.74;98.29;100697.69;5015964;28;19967;-67
2023/12/29 09:25:14;;;;;;;;;;;;;;;9.66;98.82;100690.59;5018794;28;19921;-67
2023/12/29 09:27:39;;;;;;;;;;;;;;;9.61;99.37;100687.63;5017055;28;19936;-69
2023/12/29 09:30:04;;;;;;;;;;;;;;;9.61;100.00;100695.56;5020041;28;19917;-67
2023/12/29 09:32:30;;;;;;;;;;;;;;;9.57;100.00;100702.22;5013940;28;20055;-67
2023/12/29 09:34:55;;;;;;;;;;;;;;;9.58;100.00;100685.31;5013951;28;19921;-67
2023/12/29 09:37:20;;;;;;;;;;;;;;;9.55;100.00;100691.78;5019102;28;19921;-67
2023/12/29 09:39:45;;;;;;;;;;;;;;;9.53;100.00;100690.25;5014175;28;19921;-68
2023/12/29 09:42:13;;;;;;;;;;;;;;;9.52;100.00;100697.38;5017297;28;20421;-67
2023/12/29 09:44:40;;;;;;;;;;;;;;;9.53;100.00;100691.09;5017196;28;19928;-71
2023/12/29 09:47:08;;;;;;;;;;;;;;;9.56;100.00;100701.38;5017230;28;19982;-69
2023/12/29 09:49:37;;;;;;;;;;;;;;;9.60;100.00;100702.69;5012949;28;19991;-68
2023/12/29 09:52:03;;;;;;;;;;;;;;;9.59;100.00;100702.88;5016799;28;19928;-67
2023/12/29 09:54:28;;;;;;;;;;;;;;;9.63;100.00;100705.00;5016198;28;19952;-67
2023/12/29 09:56:54;;;;;;;;;;;;;;;9.63;100.00;100706.84;5014437;28;20028;-68
2023/12/29 09:59:20;;;;;;;;;;;;;;;9.66;100.00;100713.63;5015799;28;19917;-69
2023/12/29 10:01:46;;;;;;;;;;;;;;;9.63;100.00;100717.44;5016187;28;20333;-67
2023/12/29 10:04:11;;;;;;;;;;;;;;;9.66;100.00;100709.16;5011178;28;20669;-67
2023/12/29 10:06:38;;;;;;;;;;;;;;;9.67;100.00;100723.22;5009722;28;19929;-67
2023/12/29 10:09:05;;;;;;;;;;;;;;;9.73;100.00;100715.44;5016616;28;19956;-68
2023/12/29 10:11:34;;;;;;;;;;;;;;;9.71;100.00;100730.69;5008380;28;19925;-67
2023/12/29 10:14:03;;;;;;;;;;;;;;;9.76;100.00;100722.22;5012074;28;19961;-67
2023/12/29 10:16:32;;;;;;;;;;;;;;;9.72;100.00;100720.91;5011587;28;19935;-67
2023/12/29 10:18:57;;;;;;;;;;;;;;;9.73;100.00;100731.34;5012182;28;20467;-67
2023/12/29 10:21:37;;;;;;;;;;;;;;;9.75;100.00;100731.16;5010870;28;19921;-67
2023/12/29 10:24:02;;;;;;;;;;;;;;;9.78;100.00;100731.66;5014764;28;20068;-67
2023/12/29 10:26:28;;;;;;;;;;;;;;;9.78;100.00;100741.44;5012901;28;20389;-69
2023/12/29 10:28:53;;;;;;;;;;;;;;;9.80;100.00;100755.34;5010185;28;20020;-68
2023/12/29 10:31:19;;;;;;;;;;;;;;;9.79;99.56;100741.28;5006104;28;19921;-69
2023/12/29 10:33:50;;;;;;;;;;;;;;;9.82;99.66;100743.59;5006053;28;19929;-68
2023/12/29 10:36:15;;;;;;;;;;;;;;;9.85;98.62;100745.09;5008923;28;19925;-67
2023/12/29 10:38:44;;;;;;;;;;;;;;;9.92;98.37;100752.22;5001664;28;19921;-68
2023/12/29 10:41:14;;;;;;;;;;;;;;;9.98;97.03;100753.34;5007682;28;20157;-67
2023/12/29 10:43:40;;;;;;;;;;;;;;;10.05;96.51;100754.31;5012580;28;19929;-68
2023/12/29 10:46:07;;;;;;;;;;;;;;;10.06;95.83;100755.97;5012919;28;19922;-67
2023/12/29 10:48:32;;;;;;;;;;;;;;;10.12;95.74;100751.81;5009051;28;19936;-67
2023/12/29 10:50:58;;;;;;;;;;;;;;;10.09;95.62;100760.94;5021185;28;20294;-67
2023/12/29 10:53:23;;;;;;;;;;;;;;;10.10;95.32;100757.28;5016632;28;20611;-69
2023/12/29 10:55:48;;;;;;;;;;;;;;;10.14;94.91;100748.03;5024750;28;19925;-70
2023/12/29 10:58:15;;;;;;;;;;;;;;;10.13;94.31;100737.59;5017672;28;19980;-67
2023/12/29 11:00:41;;;;;;;;;;;;;;;10.17;94.51;100731.75;5011862;28;19983;-68
2023/12/29 11:03:07;;;;;;;;;;;;;;;10.18;93.81;100749.34;5015082;28;19917;-69
2023/12/29 11:05:33;;;;;;;;;;;;;;;10.19;93.73;100740.38;5018960;28;19983;-67
2023/12/29 11:07:59;;;;;;;;;;;;;;;10.20;93.23;100743.84;5011950;28;19952;-68
2023/12/29 11:10:25;;;;;;;;;;;;;;;10.22;93.38;100747.19;5013429;28;20576;-67
2023/12/29 11:12:51;;;;;;;;;;;;;;;10.24;93.16;100748.69;5010253;28;19972;-67
2023/12/29 11:15:17;;;;;;;;;;;;;;;10.30;92.99;100741.84;5009938;28;20466;-70
2023/12/29 11:17:49;;;;;;;;;;;;;;;10.35;92.70;100742.16;5019163;28;20677;-67
2023/12/29 11:20:16;;;;;;;;;;;;;;;10.37;92.56;100731.38;5021697;28;20420;-69
2023/12/29 11:22:41;;;;;;;;;;;;;;;10.37;92.86;100745.47;5016955;28;19917;-66
2023/12/29 11:25:08;;;;;;;;;;;;;;;10.40;92.73;100734.50;5017104;28;21636;-67
2023/12/29 11:27:33;;;;;;;;;;;;;;;10.53;92.68;100741.94;5021749;28;19925;-69
2023/12/29 11:29:59;;;;;;;;;;;;;;;10.51;92.62;100728.00;5022829;28;19931;-66
2023/12/29 11:32:30;;;;;;;;;;;;;;;10.52;92.34;100738.47;5018860;28;20375;-68
2023/12/29 11:34:57;;;;;;;;;;;;;;;10.55;91.93;100746.06;5019818;28;20034;-68
2023/12/29 11:37:41;;;;;;;;;;;;;;;10.57;91.98;100735.28;5009489;28;19921;-70
2023/12/29 11:40:20;;;;;;;;;;;;;;;10.59;91.59;100727.97;5018550;28;19925;-67
2023/12/29 11:42:48;;;;;;;;;;;;;;;10.60;91.78;100729.63;5019808;28;20384;-67
2023/12/29 11:45:39;;;;;;;;;;;;;;;10.60;91.99;100745.56;5021181;28;19936;-68
2023/12/29 11:48:05;;;;;;;;;;;;;;;10.54;92.12;100744.41;5019789;28;19929;-66
2023/12/29 11:50:38;;;;;;;;;;;;;;;10.55;92.45;100724.00;5021096;28;19925;-67
2023/12/29 11:53:03;;;;;;;;;;;;;;;10.59;92.49;100725.31;5013887;28;19917;-67
2023/12/29 11:55:30;;;;;;;;;;;;;;;10.67;92.16;100727.91;5014358;28;19975;-67
2023/12/29 11:57:56;;;;;;;;;;;;;;;10.66;92.14;100717.47;5013468;28;19921;-68
2023/12/29 12:00:40;;;;;;;;;;;;;;;10.65;91.92;100719.31;5016592;28;19967;-67
2023/12/29 12:03:13;;;;;;;;;;;;;;;10.68;91.93;100718.94;5012112;28;19927;-66
2023/12/29 12:05:48;;;;;;;;;;;;;;;10.69;92.06;100730.41;5013005;28;19948;-67
2023/12/29 12:08:35;;;;;;;;;;;;;;;10.68;92.35;100718.94;5014053;28;19929;-69
2023/12/29 12:11:19;;;;;;;;;;;;;;;10.70;92.53;100716.97;5012901;28;19921;-67
2023/12/29 12:13:47;;;;;;;;;;;;;;;10.69;92.42;100717.94;5018337;28;20302;-67
2023/12/29 12:16:46;;;;;;;;;;;;;;;10.70;91.92;100722.28;5017621;28;19952;-67
2023/12/29 12:19:12;;;;;;;;;;;;;;;10.71;91.97;100715.16;5020909;28;19920;-67
2023/12/29 12:21:37;;;;;;;;;;;;;;;10.72;91.83;100699.03;5016656;28;19921;-67
2023/12/29 12:24:06;;;;;;;;;;;;;;;10.71;92.45;100693.91;5016445;28;19929;-67
2023/12/29 12:26:31;;;;;;;;;;;;;;;10.63;92.61;100702.72;5014147;28;20402;-67
2023/12/29 12:28:57;;;;;;;;;;;;;;;10.62;92.79;100700.22;5017129;28;19932;-69
2023/12/29 12:31:23;;;;;;;;;;;;;;;10.54;93.03;100699.28;5013540;28;20027;-67
2023/12/29 12:33:55;;;;;;;;;;;;;;;10.48;93.80;100701.81;5012660;28;19922;-66